Time;durP1;ratioP1;P1;durP2;ratioP2;P2;SDS_P1;SDS_P2;PMS_P1;PMS_P2;Temp;Humidity;BMP_temperature;BMP_pressure;BME280_temperature;BME280_humidity;BME280_pressure;Samples;Min_cycle;Max_cycle;Signal;HPM_P1;HPM_P2
2022/03/20 00:00:36;;;;;;;6.97;3.28;;;;;;;5.13;54.68;103258.44;4900822;29;20396;-93
2022/03/20 00:03:07;;;;;;;6.75;3.28;;;;;;;5.09;54.37;103260.03;4915028;29;20506;-93
2022/03/20 00:05:34;;;;;;;7.93;4.10;;;;;;;5.09;54.94;103256.59;4900155;29;20024;-93
2022/03/20 00:08:00;;;;;;;6.82;3.40;;;;;;;5.06;55.08;103248.72;4898731;29;20028;-92
2022/03/20 00:10:26;;;;;;;7.10;3.80;;;;;;;5.04;55.01;103242.63;4899111;29;20476;-93
2022/03/20 00:12:52;;;;;;;9.75;4.03;;;;;;;5.03;55.18;103246.94;4899592;29;20032;-91
2022/03/20 00:15:18;;;;;;;6.45;4.00;;;;;;;5.00;55.73;103244.25;4901834;29;20043;-92
2022/03/20 00:17:43;;;;;;;10.50;4.65;;;;;;;4.98;55.12;103243.28;4901627;29;20031;-92
2022/03/20 00:20:09;;;;;;;9.63;4.43;;;;;;;4.95;55.61;103236.31;4900542;29;20083;-93
2022/03/20 00:22:36;;;;;;;7.70;4.10;;;;;;;4.94;55.32;103232.00;4900428;29;20490;-91
2022/03/20 00:25:02;;;;;;;8.77;4.65;;;;;;;4.90;56.14;103230.13;4898557;29;20028;-92
2022/03/20 00:27:27;;;;;;;7.90;4.43;;;;;;;4.85;55.73;103221.31;4898659;29;20222;-93
2022/03/20 00:29:54;;;;;;;8.82;4.45;;;;;;;4.83;55.78;103217.81;4914669;29;20308;-92
2022/03/20 00:32:20;;;;;;;7.68;4.65;;;;;;;4.78;56.18;103214.22;4898307;29;20052;-92
2022/03/20 00:34:46;;;;;;;9.20;4.32;;;;;;;4.74;56.17;103213.19;4900634;29;20036;-93
2022/03/20 00:37:11;;;;;;;7.10;4.00;;;;;;;4.70;55.81;103206.16;4900510;29;20036;-92
2022/03/20 00:39:36;;;;;;;8.60;4.43;;;;;;;4.65;56.25;103199.97;4897447;29;20036;-93
2022/03/20 00:42:03;;;;;;;8.45;4.50;;;;;;;4.61;56.40;103198.97;4896036;29;20075;-93
2022/03/20 00:44:28;;;;;;;8.60;4.22;;;;;;;4.57;56.32;103189.38;4899406;29;20440;-94
2022/03/20 00:46:53;;;;;;;9.82;4.75;;;;;;;4.53;56.37;103187.50;4898027;29;20035;-92
2022/03/20 00:49:19;;;;;;;10.57;4.95;;;;;;;4.50;56.49;103182.22;4900632;29;20054;-91
2022/03/20 00:51:45;;;;;;;8.43;4.68;;;;;;;4.46;57.04;103185.50;4914454;29;20127;-93
2022/03/20 00:54:11;;;;;;;10.25;4.70;;;;;;;4.43;57.01;103182.84;4902037;29;20036;-93
2022/03/20 00:56:37;;;;;;;11.50;4.30;;;;;;;4.38;57.31;103177.47;4923800;29;20096;-92
2022/03/20 00:59:03;;;;;;;14.30;5.05;;;;;;;4.36;57.12;103174.84;4911264;29;20531;-92
2022/03/20 01:01:29;;;;;;;11.33;5.13;;;;;;;4.34;57.09;103170.47;4897959;29;20141;-92
2022/03/20 01:03:55;;;;;;;12.38;5.22;;;;;;;4.30;57.07;103163.44;4897348;29;20047;-92
2022/03/20 01:06:22;;;;;;;10.77;5.22;;;;;;;4.27;57.31;103169.34;4912363;29;20037;-92
2022/03/20 01:08:55;;;;;;;8.33;4.67;;;;;;;4.25;57.52;103168.44;4896742;29;20039;-93
2022/03/20 01:11:20;;;;;;;13.17;5.77;;;;;;;4.25;57.31;103171.00;4899082;29;20498;-91
2022/03/20 01:13:46;;;;;;;11.48;6.20;;;;;;;4.23;57.52;103162.34;4897481;29;20028;-92
2022/03/20 01:16:11;;;;;;;11.55;5.95;;;;;;;4.22;57.25;103156.28;4899191;29;20088;-94
2022/03/20 01:18:37;;;;;;;11.70;6.83;;;;;;;4.20;57.27;103159.63;4914666;29;20448;-91
2022/03/20 01:21:03;;;;;;;12.30;6.68;;;;;;;4.19;57.03;103152.72;4898165;29;20030;-91
2022/03/20 01:23:28;;;;;;;12.17;7.13;;;;;;;4.17;57.28;103154.34;4898376;29;20811;-93
2022/03/20 01:25:54;;;;;;;12.07;7.13;;;;;;;4.16;56.96;103147.44;4916610;29;20040;-92
2022/03/20 01:28:20;;;;;;;13.80;7.40;;;;;;;4.15;56.82;103137.97;4897707;29;20075;-92
2022/03/20 01:30:47;;;;;;;17.80;8.97;;;;;;;4.13;56.70;103134.44;4897204;29;20036;-92
2022/03/20 01:33:13;;;;;;;16.20;8.90;;;;;;;4.13;57.12;103131.88;4898982;29;20115;-93
2022/03/20 01:35:39;;;;;;;17.50;9.63;;;;;;;4.10;56.99;103135.22;4898102;29;20027;-93
2022/03/20 01:38:07;;;;;;;15.80;9.37;;;;;;;4.09;56.75;103118.91;4898037;29;20096;-92
2022/03/20 01:40:34;;;;;;;16.27;9.50;;;;;;;4.06;56.66;103115.31;4897552;29;20044;-92
2022/03/20 01:43:00;;;;;;;19.43;9.87;;;;;;;4.04;57.07;103117.84;4912495;29;20048;-92
2022/03/20 01:45:25;;;;;;;17.10;10.40;;;;;;;4.00;56.85;103113.38;4898277;29;20377;-91
2022/03/20 01:47:52;;;;;;;17.53;10.40;;;;;;;4.01;57.01;103109.97;4893943;29;20036;-92
2022/03/20 01:50:19;;;;;;;17.23;10.43;;;;;;;3.99;57.27;103100.44;4898883;29;20391;-93
2022/03/20 01:52:46;;;;;;;17.80;10.37;;;;;;;3.95;56.99;103091.69;4898595;29;20039;-93
2022/03/20 01:55:12;;;;;;;18.07;11.30;;;;;;;3.90;56.83;103085.53;4897202;29;20387;-92
2022/03/20 01:57:42;;;;;;;18.33;10.68;;;;;;;3.90;56.86;103085.53;4916056;29;20032;-92
2022/03/20 02:00:10;;;;;;;17.60;10.23;;;;;;;3.85;56.92;103084.47;4895028;29;20127;-93
2022/03/20 02:02:36;;;;;;;17.17;10.53;;;;;;;3.82;57.02;103085.22;4894194;29;20042;-92
2022/03/20 02:05:02;;;;;;;19.53;11.40;;;;;;;3.83;56.93;103078.38;4897940;29;20118;-93
2022/03/20 02:07:28;;;;;;;19.33;10.53;;;;;;;3.80;57.24;103079.13;4897746;29;20032;-92
2022/03/20 02:09:53;;;;;;;17.37;11.20;;;;;;;3.78;57.08;103076.47;4893422;29;20032;-93
2022/03/20 02:12:19;;;;;;;16.30;10.43;;;;;;;3.77;56.98;103077.31;4895619;29;20112;-92
2022/03/20 02:14:44;;;;;;;20.57;11.63;;;;;;;3.77;56.96;103069.56;4896068;29;20051;-92
2022/03/20 02:17:11;;;;;;;20.83;11.77;;;;;;;3.80;56.94;103064.56;4913580;29;20122;-92
2022/03/20 02:19:38;;;;;;;19.97;12.13;;;;;;;3.79;56.69;103057.66;4897031;29;20461;-93
2022/03/20 02:22:04;;;;;;;19.00;11.85;;;;;;;3.79;56.81;103057.66;4912062;29;20035;-92
2022/03/20 02:24:46;;;;;;;23.00;11.68;;;;;;;3.85;55.84;103049.28;4895533;29;20127;-93
2022/03/20 02:27:17;;;;;;;20.92;12.00;;;;;;;3.81;56.33;103055.16;4896245;29;20527;-92
2022/03/20 02:29:46;;;;;;;20.83;12.63;;;;;;;3.80;56.52;103056.81;4896129;29;20117;-91
2022/03/20 02:32:14;;;;;;;21.03;12.60;;;;;;;3.74;56.68;103050.56;4896769;29;20024;-93
2022/03/20 02:34:40;;;;;;;24.30;12.30;;;;;;;3.76;56.41;103044.66;4892171;29;20136;-92
2022/03/20 02:37:06;;;;;;;21.73;12.63;;;;;;;3.73;56.71;103041.97;4910912;29;20028;-92
2022/03/20 02:39:32;;;;;;;24.33;12.77;;;;;;;3.70;56.69;103040.97;4895742;29;20176;-94
2022/03/20 02:42:04;;;;;;;20.13;11.73;;;;;;;3.70;56.42;103038.38;4912617;29;20551;-93
2022/03/20 02:44:48;;;;;;;23.98;13.52;;;;;;;3.69;56.31;103027.22;4896248;29;20056;-93
2022/03/20 02:47:14;;;;;;;21.97;12.33;;;;;;;3.63;56.89;103019.25;4913904;29;20039;-92
2022/03/20 02:49:40;;;;;;;23.10;13.13;;;;;;;3.60;56.94;103020.03;4896008;29;20036;-93
2022/03/20 02:52:07;;;;;;;22.93;12.63;;;;;;;3.59;56.96;103013.13;4914184;29;20218;-91
2022/03/20 02:54:32;;;;;;;24.57;13.47;;;;;;;3.58;56.95;103011.38;4897346;29;20024;-93
2022/03/20 02:56:57;;;;;;;28.40;14.00;;;;;;;3.54;57.01;103019.78;4898385;29;20120;-93
2022/03/20 02:59:22;;;;;;;22.70;13.07;;;;;;;3.55;56.80;103020.69;4912065;29;20547;-92
2022/03/20 03:01:48;;;;;;;28.47;14.30;;;;;;;3.54;56.99;103006.06;4894938;29;20035;-92
2022/03/20 03:04:13;;;;;;;24.50;13.20;;;;;;;3.53;57.00;103004.28;4891039;29;20559;-93
2022/03/20 03:06:38;;;;;;;23.77;13.60;;;;;;;3.51;57.25;102998.22;4896584;29;20055;-92
2022/03/20 03:11:49;;;;;;;24.20;13.90;;;;;;;3.46;57.04;102996.31;4912510;29;20072;-91
2022/03/20 03:16:58;;;;;;;23.20;13.73;;;;;;;3.36;57.56;102993.34;4913102;29;20094;-93
2022/03/20 03:19:23;;;;;;;24.97;13.67;;;;;;;3.33;57.58;102994.09;4897469;29;20047;-94
2022/03/20 03:21:49;;;;;;;25.70;13.60;;;;;;;3.30;57.43;102996.53;4899045;29;20551;-90
2022/03/20 03:24:14;;;;;;;24.10;13.10;;;;;;;3.29;57.36;102981.94;4914402;29;20045;-92
2022/03/20 03:26:40;;;;;;;22.43;13.03;;;;;;;3.25;57.64;102985.19;4899595;29;20095;-91
2022/03/20 03:29:05;;;;;;;23.67;13.70;;;;;;;3.22;57.86;102990.25;4900521;29;20083;-92
2022/03/20 03:31:31;;;;;;;23.33;13.10;;;;;;;3.17;58.49;102982.31;4898033;29;20067;-92
2022/03/20 03:36:41;;;;;;;23.97;13.03;;;;;;;3.08;58.54;102972.53;4916103;29;20134;-93
2022/03/20 03:39:07;;;;;;;24.47;13.37;;;;;;;3.05;58.38;102969.88;4915519;29;20036;-92
2022/03/20 03:41:33;;;;;;;28.03;14.00;;;;;;;3.00;58.59;102961.94;4899643;29;20460;-91
2022/03/20 03:43:58;;;;;;;23.10;13.53;;;;;;;2.99;58.52;102959.34;4912032;29;20099;-92
2022/03/20 03:46:23;;;;;;;27.50;13.90;;;;;;;2.96;58.76;102959.19;4900065;29;20032;-92
2022/03/20 03:48:49;;;;;;;24.20;13.83;;;;;;;2.88;59.06;102949.50;4899785;29;20072;-92
2022/03/20 03:51:14;;;;;;;23.47;13.70;;;;;;;2.84;58.95;102946.72;4900266;29;20080;-92
2022/03/20 03:53:39;;;;;;;22.27;13.30;;;;;;;2.83;58.98;102935.56;4899655;29;20381;-91
2022/03/20 03:56:05;;;;;;;23.77;13.93;;;;;;;2.80;59.33;102934.59;4898235;29;20123;-92
2022/03/20 03:58:30;;;;;;;24.97;13.63;;;;;;;2.76;59.24;102933.56;4899499;29;20381;-92
2022/03/20 04:00:55;;;;;;;27.17;14.47;;;;;;;2.74;59.29;102930.03;4897894;29;20107;-92
2022/03/20 04:03:20;;;;;;;24.13;14.00;;;;;;;2.71;59.47;102935.09;4915600;29;20024;-93
2022/03/20 04:05:47;;;;;;;25.83;14.13;;;;;;;2.68;59.11;102932.38;4900156;29;20040;-92
2022/03/20 04:08:15;;;;;;;23.97;14.33;;;;;;;2.67;59.38;102938.34;4899327;29;20409;-93
2022/03/20 04:10:40;;;;;;;22.07;14.27;;;;;;;2.66;59.43;102931.44;4898508;29;20028;-91
2022/03/20 04:13:07;;;;;;;24.93;14.37;;;;;;;2.63;59.32;102921.94;4898509;29;20028;-92
2022/03/20 04:15:32;;;;;;;27.13;14.37;;;;;;;2.61;59.71;102922.66;4900339;29;20024;-92
2022/03/20 04:18:00;;;;;;;27.43;13.90;;;;;;;2.57;59.63;102916.53;4899064;29;20543;-92
2022/03/20 04:20:25;;;;;;;25.50;14.37;;;;;;;2.60;59.25;102910.63;4899555;29;20031;-92
2022/03/20 04:25:39;;;;;;;23.97;14.23;;;;;;;2.56;59.67;102889.06;4915166;29;20071;-91
2022/03/20 04:28:05;;;;;;;24.93;13.80;;;;;;;2.55;59.74;102888.22;4899112;29;20404;-92
2022/03/20 04:30:32;;;;;;;24.30;14.03;;;;;;;2.56;59.60;102879.66;4897042;29;20043;-93
2022/03/20 04:32:58;;;;;;;25.90;14.60;;;;;;;2.55;60.19;102877.94;4899995;29;20021;-92
2022/03/20 04:35:23;;;;;;;30.57;15.87;;;;;;;2.55;60.12;102866.75;4899685;29;20036;-92
2022/03/20 04:37:51;;;;;;;25.53;14.33;;;;;;;2.55;59.59;102882.19;4899412;29;20043;-93
2022/03/20 04:40:16;;;;;;;24.20;13.83;;;;;;;2.53;59.80;102879.56;4896908;29;20028;-91
2022/03/20 04:42:41;;;;;;;24.37;14.10;;;;;;;2.54;59.71;102875.28;4899025;29;20100;-92
2022/03/20 04:45:07;;;;;;;25.03;13.53;;;;;;;2.51;59.59;102875.16;4898572;29;20527;-92
2022/03/20 04:58:31;;;;;;;22.70;13.43;;;;;;;2.45;59.34;102862.94;4910099;29;20153;-92
2022/03/20 05:00:57;;;;;;;25.13;13.70;;;;;;;2.41;59.31;102863.63;4894846;29;20042;-92
2022/03/20 05:03:24;;;;;;;25.17;13.80;;;;;;;2.43;59.60;102868.03;4913614;29;20043;-91
2022/03/20 05:05:49;;;;;;;24.07;12.83;;;;;;;2.43;59.28;102856.84;4898309;29;20445;-92
2022/03/20 05:08:14;;;;;;;25.40;13.80;;;;;;;2.42;59.82;102842.25;4913759;29;20060;-93
2022/03/20 05:13:24;;;;;;;26.70;14.17;;;;;;;2.41;59.31;102827.66;4914643;29;20043;-93
2022/03/20 05:15:54;;;;;;;24.63;14.23;;;;;;;2.39;59.54;102825.03;4899285;29;20444;-92
2022/03/20 05:18:19;;;;;;;24.57;13.40;;;;;;;2.40;59.46;102831.94;4896882;29;20098;-91
2022/03/20 05:20:45;;;;;;;24.63;13.43;;;;;;;2.41;59.13;102832.78;4913099;29;20449;-91
2022/03/20 05:23:10;;;;;;;26.67;15.00;;;;;;;2.41;59.29;102830.22;4915944;29;20028;-92
2022/03/20 05:25:37;;;;;;;26.17;14.27;;;;;;;2.42;59.21;102831.97;4909290;29;20099;-93
2022/03/20 05:28:02;;;;;;;26.83;14.23;;;;;;;2.42;58.71;102829.41;4921643;29;20055;-93
2022/03/20 05:30:28;;;;;;;25.90;14.27;;;;;;;2.41;58.55;102832.78;4899456;29;20039;-92
2022/03/20 05:32:54;;;;;;;24.07;13.60;;;;;;;2.41;58.27;102833.69;4898020;29;20020;-92
2022/03/20 05:35:19;;;;;;;27.43;14.03;;;;;;;2.41;58.31;102825.97;4898855;29;20020;-92
2022/03/20 05:37:45;;;;;;;21.60;13.13;;;;;;;2.44;58.03;102825.22;4896519;29;20087;-92
2022/03/20 05:40:12;;;;;;;27.77;14.87;;;;;;;2.45;57.28;102824.41;4897571;29;20020;-92
2022/03/20 05:42:38;;;;;;;24.20;14.10;;;;;;;2.47;57.23;102822.78;4895528;29;20048;-92
2022/03/20 05:45:04;;;;;;;23.70;13.80;;;;;;;2.48;56.72;102821.97;4896219;29;20039;-91
2022/03/20 05:47:31;;;;;;;23.90;12.87;;;;;;;2.51;57.04;102819.53;4911229;29;20032;-92
2022/03/20 05:49:58;;;;;;;25.17;13.63;;;;;;;2.54;56.40;102808.47;4897947;29;20043;-93
2022/03/20 05:52:23;;;;;;;27.43;15.13;;;;;;;2.54;56.46;102809.38;4892291;29;20040;-92
2022/03/20 05:54:48;;;;;;;23.80;13.73;;;;;;;2.57;56.20;102809.47;4915329;29;20028;-92
2022/03/20 05:59:58;;;;;;;24.13;13.63;;;;;;;2.61;56.27;102807.03;4912799;29;20392;-91
2022/03/20 06:02:23;;;;;;;26.83;14.40;;;;;;;2.62;56.23;102808.78;4896102;29;20484;-92
2022/03/20 06:04:49;;;;;;;25.17;13.13;;;;;;;2.66;55.66;102810.66;4896009;29;20039;-92
2022/03/20 06:07:14;;;;;;;24.67;14.13;;;;;;;2.67;55.12;102809.84;4895520;29;20115;-90
2022/03/20 06:09:39;;;;;;;24.70;13.57;;;;;;;2.69;55.70;102808.22;4913707;29;20028;-92
2022/03/20 06:12:08;;;;;;;25.50;14.17;;;;;;;2.72;55.55;102798.06;4914259;29;20039;-91
2022/03/20 06:14:35;;;;;;;23.13;13.00;;;;;;;2.72;55.43;102798.06;4898204;29;20111;-93
2022/03/20 06:17:01;;;;;;;28.30;14.57;;;;;;;2.74;55.41;102796.41;4898014;29;20028;-92
2022/03/20 06:19:26;;;;;;;26.07;13.70;;;;;;;2.76;55.04;102793.91;4895842;29;20035;-91
2022/03/20 06:21:51;;;;;;;27.03;13.50;;;;;;;2.75;55.62;102795.59;4893258;29;20036;-92
2022/03/20 06:24:16;;;;;;;25.13;13.77;;;;;;;2.80;54.90;102791.50;4896448;29;20067;-91
2022/03/20 06:26:42;;;;;;;26.63;14.83;;;;;;;2.82;54.70;102789.00;4895835;29;20043;-92
2022/03/20 06:29:07;;;;;;;23.87;13.57;;;;;;;2.87;54.91;102792.59;4893966;29;20064;-91
2022/03/20 06:31:33;;;;;;;25.67;14.17;;;;;;;2.87;54.95;102790.94;4892738;29;20506;-90
2022/03/20 06:34:00;;;;;;;26.53;14.20;;;;;;;2.91;54.63;102794.47;4897556;29;20067;-92
2022/03/20 06:36:26;;;;;;;25.63;14.67;;;;;;;2.96;54.63;102786.94;4898115;29;20031;-91
2022/03/20 06:38:52;;;;;;;28.80;14.17;;;;;;;2.97;54.29;102788.69;4895940;29;20039;-92
2022/03/20 06:41:20;;;;;;;25.47;13.93;;;;;;;2.98;54.45;102785.31;4896336;29;20039;-92
2022/03/20 06:43:45;;;;;;;23.97;14.03;;;;;;;3.01;54.12;102791.44;4895553;29;20547;-92
2022/03/20 06:46:10;;;;;;;27.07;12.67;;;;;;;3.02;53.68;102784.59;4897082;29;20028;-92
2022/03/20 06:48:36;;;;;;;22.30;13.23;;;;;;;3.03;53.77;102784.66;4895843;29;20508;-91
2022/03/20 06:51:04;;;;;;;22.00;12.17;;;;;;;3.06;54.16;102780.44;4910799;29;20035;-92
2022/03/20 06:53:31;;;;;;;24.30;12.87;;;;;;;3.07;53.23;102770.22;4895808;29;20032;-92
2022/03/20 06:55:57;;;;;;;25.10;13.03;;;;;;;3.07;53.39;102770.22;4897854;29;20035;-92
2022/03/20 06:58:23;;;;;;;24.20;13.10;;;;;;;3.12;53.54;102768.69;4897052;29;20039;-91
2022/03/20 07:00:50;;;;;;;27.47;13.90;;;;;;;3.16;53.70;102767.97;4909151;29;20114;-92
2022/03/20 07:03:15;;;;;;;25.47;13.23;;;;;;;3.25;52.43;102758.81;4895340;29;20047;-93
2022/03/20 07:05:40;;;;;;;24.53;13.83;;;;;;;3.34;52.23;102748.88;4897028;29;20028;-92
2022/03/20 07:08:06;;;;;;;24.50;13.60;;;;;;;3.41;52.41;102757.69;4895452;29;20114;-92
2022/03/20 07:10:33;;;;;;;22.27;13.13;;;;;;;3.48;51.46;102750.22;4896330;29;20024;-91
2022/03/20 07:15:45;;;;;;;22.83;13.20;;;;;;;3.63;51.93;102755.03;4913694;29;20557;-92
2022/03/20 07:18:15;;;;;;;23.63;13.60;;;;;;;3.71;51.60;102749.25;4895359;29;20396;-91
2022/03/20 07:20:43;;;;;;;24.63;12.73;;;;;;;3.76;50.88;102745.16;4896529;29;20085;-91
2022/03/20 07:23:10;;;;;;;26.30;13.37;;;;;;;3.78;50.01;102731.50;4896596;29;20048;-92
2022/03/20 07:31:05;;;;;;;23.63;13.27;;;;;;;3.96;49.98;102712.31;4909420;29;20118;-91
2022/03/20 07:33:30;;;;;;;24.03;13.20;;;;;;;4.01;49.79;102697.91;4896804;29;20488;-92
2022/03/20 07:35:55;;;;;;;27.77;13.80;;;;;;;4.02;49.31;102699.66;4896327;29;20499;-91
2022/03/20 07:38:21;;;;;;;22.90;13.07;;;;;;;4.02;49.50;102696.19;4910461;29;20028;-92
2022/03/20 07:40:46;;;;;;;25.17;12.23;;;;;;;4.07;49.43;102698.09;4894046;29;20036;-92
2022/03/20 07:43:12;;;;;;;23.43;13.80;;;;;;;4.10;48.68;102703.31;4894720;29;20044;-91
2022/03/20 07:45:37;;;;;;;25.73;13.10;;;;;;;4.15;48.08;102697.44;4896629;29;20068;-91
2022/03/20 07:48:03;;;;;;;24.40;13.67;;;;;;;4.17;48.08;102704.41;4909272;29;20803;-91
2022/03/20 07:50:28;;;;;;;24.33;13.50;;;;;;;4.14;48.68;102711.16;4894642;29;20035;-92
2022/03/20 07:52:56;;;;;;;25.60;13.27;;;;;;;4.19;48.15;102696.72;4896190;29;20038;-92
2022/03/20 07:55:22;;;;;;;23.03;12.67;;;;;;;4.24;48.40;102698.59;4895787;29;20114;-91
2022/03/20 07:57:47;;;;;;;23.63;12.80;;;;;;;4.27;47.46;102692.66;4894956;29;20550;-92
2022/03/20 08:00:13;;;;;;;24.60;13.23;;;;;;;4.31;48.23;102688.50;4913462;29;20032;-90
2022/03/20 08:02:38;;;;;;;25.73;13.43;;;;;;;4.31;48.22;102676.47;4892428;29;20131;-92
2022/03/20 08:05:04;;;;;;;22.17;12.53;;;;;;;4.33;47.89;102674.81;4911872;29;20740;-91
2022/03/20 08:07:37;;;;;;;23.57;13.33;;;;;;;4.36;48.72;102685.22;4903112;29;20035;-91
2022/03/20 08:10:10;;;;;;;22.60;12.55;;;;;;;4.35;48.83;102673.16;4922569;29;20016;-93
2022/03/20 08:12:35;;;;;;;22.73;12.67;;;;;;;4.33;47.63;102679.97;4937623;29;20037;-93
2022/03/20 08:15:02;;;;;;;26.48;13.00;;;;;;;4.29;48.35;102675.53;4915366;29;20036;-92
2022/03/20 08:17:29;;;;;;;20.55;11.70;;;;;;;4.29;48.35;102660.09;4900313;29;20051;-91
2022/03/20 08:19:55;;;;;;;21.55;12.02;;;;;;;4.29;48.84;102665.25;4897721;29;20039;-92
2022/03/20 08:22:21;;;;;;;22.75;12.63;;;;;;;4.30;47.49;102658.41;4916592;29;20083;-91
2022/03/20 08:24:48;;;;;;;23.42;12.90;;;;;;;4.29;48.01;102665.25;4899818;29;20040;-93
2022/03/20 08:27:13;;;;;;;26.85;13.48;;;;;;;4.31;47.90;102660.16;4895403;29;20437;-92
2022/03/20 08:29:38;;;;;;;23.55;12.55;;;;;;;4.32;48.91;102661.91;4897674;29;20066;-92
2022/03/20 08:32:05;;;;;;;24.63;13.10;;;;;;;4.34;47.74;102661.09;4897775;29;20051;-92
2022/03/20 08:34:31;;;;;;;22.13;13.30;;;;;;;4.38;47.46;102662.97;4896829;29;20068;-91
2022/03/20 08:36:56;;;;;;;23.38;13.43;;;;;;;4.41;47.43;102662.16;4897366;29;20032;-91
2022/03/20 08:39:21;;;;;;;23.13;12.70;;;;;;;4.43;47.69;102659.66;4897362;29;20111;-91
2022/03/20 08:41:47;;;;;;;21.20;12.65;;;;;;;4.43;47.72;102660.50;4895619;29;20084;-91
2022/03/20 08:44:13;;;;;;;22.23;12.80;;;;;;;4.42;48.34;102650.16;4898327;29;20472;-92
2022/03/20 08:46:39;;;;;;;20.83;11.93;;;;;;;4.41;47.66;102651.84;4896759;29;20128;-91
2022/03/20 08:49:07;;;;;;;22.27;12.75;;;;;;;4.41;47.85;102651.84;4898409;29;20036;-92
2022/03/20 08:51:34;;;;;;;21.15;12.27;;;;;;;4.42;49.08;102656.19;4894247;29;20028;-92
2022/03/20 08:54:01;;;;;;;21.13;12.18;;;;;;;4.43;47.74;102654.50;4895848;29;20067;-93
2022/03/20 08:56:27;;;;;;;21.75;12.80;;;;;;;4.45;47.62;102663.13;4897938;29;20119;-91
2022/03/20 08:58:52;;;;;;;24.67;12.80;;;;;;;4.46;47.93;102664.88;4896955;29;20044;-92
2022/03/20 09:01:17;;;;;;;22.45;12.85;;;;;;;4.50;48.21;102666.72;4894610;29;20032;-91
2022/03/20 09:03:44;;;;;;;23.88;13.27;;;;;;;4.55;49.32;102655.69;4913134;29;20040;-92
2022/03/20 09:06:09;;;;;;;21.93;12.73;;;;;;;4.60;48.40;102663.59;4892796;29;20032;-91
2022/03/20 09:08:35;;;;;;;23.80;13.15;;;;;;;4.64;47.70;102659.38;4909720;29;20046;-90
2022/03/20 09:11:00;;;;;;;23.23;13.25;;;;;;;4.67;48.29;102657.75;4899352;29;20066;-91
2022/03/20 09:13:26;;;;;;;21.38;12.65;;;;;;;4.74;48.19;102660.53;4900394;29;20399;-90
2022/03/20 09:18:59;;;;;;;23.52;12.68;;;;;;;4.79;47.79;102654.66;4899021;29;20464;-89
2022/03/20 09:21:21;;;;;;;23.67;13.88;;;;;;;4.92;47.42;102642.09;4916556;29;20051;-89
2022/03/20 09:23:48;;;;;;;23.48;13.10;;;;;;;4.98;47.50;102635.38;4914083;29;20048;-91
2022/03/20 09:26:13;;;;;;;21.80;12.95;;;;;;;5.09;47.96;102627.06;4903919;29;20038;-90
2022/03/20 09:28:40;;;;;;;23.13;13.40;;;;;;;5.27;48.63;102629.22;4898075;29;20126;-89
2022/03/20 09:31:07;;;;;;;24.60;13.70;;;;;;;5.53;47.85;102621.28;4897920;29;20059;-90
2022/03/20 09:33:32;;;;;;;22.98;13.52;;;;;;;5.77;47.93;102620.97;4892374;29;20040;-88
2022/03/20 09:35:57;;;;;;;23.15;14.30;;;;;;;5.97;46.89;102605.91;4914842;29;20107;-89
2022/03/20 09:38:25;;;;;;;23.00;13.52;;;;;;;6.16;47.25;102609.78;4900083;29;20120;-90
2022/03/20 09:40:51;;;;;;;25.27;13.80;;;;;;;6.30;46.30;102609.22;4899101;29;20134;-91
2022/03/20 09:43:17;;;;;;;24.75;13.88;;;;;;;6.34;45.87;102598.09;4898203;29;20500;-89
2022/03/20 09:45:44;;;;;;;23.98;13.35;;;;;;;6.42;46.79;102582.72;4907464;29;20109;-89
2022/03/20 09:48:12;;;;;;;27.20;14.75;;;;;;;6.46;44.36;102595.78;4912538;29;20123;-90
2022/03/20 09:50:38;;;;;;;26.13;15.10;;;;;;;6.44;45.23;102581.94;4912605;29;20046;-88
2022/03/20 09:53:03;;;;;;;26.95;14.85;;;;;;;6.42;44.88;102583.63;4912451;29;20043;-87
2022/03/20 09:55:29;;;;;;;30.65;15.18;;;;;;;6.43;45.35;102595.72;4896681;29;20046;-89
2022/03/20 09:57:56;;;;;;;26.90;15.65;;;;;;;6.44;46.26;102594.88;4916461;29;20857;-90
2022/03/20 10:00:22;;;;;;;30.17;15.25;;;;;;;6.46;45.72;102598.34;4896606;29;20119;-91
2022/03/20 10:02:47;;;;;;;26.30;15.05;;;;;;;6.44;46.44;102602.63;4892277;29;20035;-90
2022/03/20 10:05:22;;;;;;;26.67;15.60;;;;;;;6.42;45.70;102614.66;4899875;29;20174;-90
2022/03/20 10:07:48;;;;;;;27.10;16.02;;;;;;;6.36;45.96;102614.50;4907210;29;20499;-90
2022/03/20 10:10:15;;;;;;;32.20;17.20;;;;;;;6.30;45.69;102598.91;4913641;29;20031;-91
2022/03/20 10:12:47;;;;;;;27.73;14.80;;;;;;;6.28;46.75;102608.31;4913177;29;20035;-87
2022/03/20 10:15:36;;;;;;;28.95;16.42;;;;;;;6.25;46.76;102619.44;4915516;29;20031;-91
2022/03/20 10:18:10;;;;;;;28.83;16.52;;;;;;;6.20;46.78;102624.53;4898575;29;20039;-90
2022/03/20 10:20:41;;;;;;;30.75;17.38;;;;;;;6.16;46.27;102627.88;4895224;29;20053;-90
2022/03/20 10:23:27;;;;;;;28.55;16.88;;;;;;;6.11;46.95;102634.69;4896530;29;20633;-91
2022/03/20 10:25:53;;;;;;;28.52;16.58;;;;;;;6.08;48.43;102640.63;4894563;29;20160;-91
2022/03/20 10:28:18;;;;;;;29.02;16.20;;;;;;;6.03;50.44;102647.44;4913169;29;20043;-89
2022/03/20 10:30:58;;;;;;;29.48;17.92;;;;;;;6.01;52.07;102656.84;4895817;29;20032;-89
2022/03/20 10:33:24;;;;;;;35.47;18.52;;;;;;;5.92;57.85;102654.00;4915264;29;20468;-89
2022/03/20 10:36:08;;;;;;;30.85;18.50;;;;;;;5.83;55.24;102656.41;4891985;29;20040;-89
2022/03/20 10:38:36;;;;;;;36.53;18.80;;;;;;;5.76;57.18;102642.47;4909020;29;20031;-89
2022/03/20 10:41:14;;;;;;;31.83;18.27;;;;;;;5.69;57.81;102653.47;4910287;29;20034;-89
2022/03/20 10:43:43;;;;;;;32.65;18.48;;;;;;;5.59;58.80;102650.69;4906821;29;20051;-90
2022/03/20 10:46:17;;;;;;;33.20;18.65;;;;;;;5.52;59.61;102646.19;4913936;29;20042;-89
2022/03/20 10:48:44;;;;;;;31.63;19.17;;;;;;;5.46;60.49;102640.91;4897129;29;20452;-88
2022/03/20 10:51:10;;;;;;;35.08;19.58;;;;;;;5.43;61.65;102633.09;4912478;29;20036;-87
2022/03/20 10:53:52;;;;;;;30.80;17.85;;;;;;;5.42;57.83;102631.34;4916061;29;20031;-88
2022/03/20 10:56:17;;;;;;;32.88;19.00;;;;;;;5.37;62.69;102644.13;4913185;29;20166;-89
2022/03/20 10:58:43;;;;;;;34.08;18.90;;;;;;;5.32;62.57;102625.94;4899657;29;20039;-88
2022/03/20 11:01:09;;;;;;;32.65;18.55;;;;;;;5.32;63.44;102630.22;4897660;29;20094;-91
2022/03/20 11:03:39;;;;;;;33.72;19.27;;;;;;;5.36;63.72;102631.16;4917617;29;20108;-91
2022/03/20 11:06:08;;;;;;;32.42;17.63;;;;;;;5.39;63.43;102626.09;4914859;29;20063;-89
2022/03/20 11:08:34;;;;;;;31.33;18.60;;;;;;;5.46;64.61;102617.69;4889692;29;20083;-88
2022/03/20 11:11:01;;;;;;;29.60;18.40;;;;;;;5.53;65.04;102621.28;4913839;29;20028;-90
2022/03/20 11:13:27;;;;;;;35.05;19.27;;;;;;;5.64;64.31;102634.44;4911240;29;20123;-90
2022/03/20 11:15:56;;;;;;;35.17;18.45;;;;;;;5.69;64.45;102625.06;4899330;29;20100;-92
2022/03/20 11:18:25;;;;;;;33.72;19.50;;;;;;;5.71;62.03;102626.00;4893550;29;20044;-91
2022/03/20 11:20:52;;;;;;;32.42;19.10;;;;;;;5.80;62.35;102622.75;4913321;29;20061;-90
2022/03/20 11:23:18;;;;;;;33.05;19.17;;;;;;;5.87;62.51;102624.66;4898301;29;20031;-90
2022/03/20 11:25:45;;;;;;;33.80;19.33;;;;;;;5.96;61.92;102619.66;4917059;29;20111;-90
2022/03/20 11:28:12;;;;;;;32.10;18.67;;;;;;;6.05;61.93;102626.78;4915466;29;20112;-89
2022/03/20 11:30:39;;;;;;;33.58;20.33;;;;;;;6.18;62.54;102621.03;4918345;29;20043;-91
2022/03/20 11:33:06;;;;;;;32.28;19.98;;;;;;;6.30;62.89;102619.56;4898475;29;20011;-89
2022/03/20 11:35:34;;;;;;;32.60;20.08;;;;;;;6.43;62.34;102623.25;4901267;29;20040;-90
2022/03/20 11:38:16;;;;;;;32.80;20.20;;;;;;;6.55;60.59;102615.78;4903885;29;20027;-90
2022/03/20 11:41:20;;;;;;;32.65;19.17;;;;;;;6.67;59.75;102608.25;4917374;29;20047;-93
2022/03/20 11:44:20;;;;;;;31.20;18.90;;;;;;;6.76;59.08;102614.41;4902112;29;20052;-92
2022/03/20 11:46:46;;;;;;;29.27;17.52;;;;;;;6.80;57.81;102611.94;4922443;29;20046;-91
2022/03/20 11:49:15;;;;;;;29.25;18.77;;;;;;;6.84;60.27;102623.22;4916181;29;20233;-89
2022/03/20 11:52:11;;;;;;;30.42;18.98;;;;;;;6.88;59.25;102608.59;4898850;29;20040;-89
2022/03/20 11:54:39;;;;;;;31.55;18.48;;;;;;;6.92;60.77;102620.75;4917582;29;20846;-94
2022/03/20 11:57:30;;;;;;;34.03;18.45;;;;;;;6.94;59.56;102619.06;4917770;29;20031;-92